Albion, New York
Current Conditions -  °F | °C
As of 10:54 PM on Tuesday 25 Nov 2014 (Local Time) from KROC Reporting Station
Overcast Overcast  
Wind Chill: 29°   Ceiling: 3200
Heat Index: 35°   Visibility: 10mi
Dew Point: 25°   Wind: 7mph
Humidity: 67%   Direction: 270°W
Pressure: 30.19"   Gusts: NA
Location:  43.25°N, 78.19°W
Report Text: KROC 260354Z 27006KT 10SM OVC032 02/M04 A3019 RMK AO2 SLP231 T00171039
Loading
Personal Weather Stations






























Interactive Weather Map New forecast layout! Learn more

10-Day Weather Forecast

Advertisements
Track Severe Weather on mobile